Terminal Aerodrome Forecast
Issued by NWS Corpus Christi, TX

Home | Current Version | Previous Version | Text Only | Print | Product List | Glossary On
Versions: 1 2 3 4 5 6 7 8 9 10 11 12 13 14 15 16 17 18 19
000
FTUS44 KCRP 312135 AAB
TAFCRP
TAF AMD
KCRP 312135Z 3122/0118 14015G21KT P6SM VCTS SCT035CB
     FM010000 14010KT P6SM SCT020
      TEMPO 0114/0116 BKN020=

USA.gov is the U.S. government's official web portal to all federal, state and local government web resources and services.